createdAt,value
2019-01-15T00:00:23.479Z,3.14
2019-01-15T00:01:23.514Z,3.11
2019-01-15T00:02:23.463Z,3.09
2019-01-15T00:03:23.455Z,3.02
2019-01-15T00:04:23.438Z,3.00
2019-01-15T00:05:23.426Z,2.91
2019-01-15T00:06:23.412Z,2.97
2019-01-15T00:07:23.447Z,2.99
2019-01-15T00:08:23.392Z,3.02
2019-01-15T00:09:23.381Z,2.94
2019-01-15T00:10:23.374Z,3.00
2019-01-15T00:11:23.360Z,2.99
2019-01-15T00:12:23.347Z,2.97
2019-01-15T00:13:23.415Z,2.99
2019-01-15T00:14:23.328Z,2.97
2019-01-15T00:15:23.316Z,2.93
2019-01-15T00:16:23.304Z,2.86
2019-01-15T00:17:23.291Z,2.84
2019-01-15T00:18:23.329Z,2.84
2019-01-15T00:19:23.276Z,2.78
2019-01-15T00:20:23.261Z,2.72
2019-01-15T00:21:23.248Z,2.75
2019-01-15T00:22:23.240Z,2.81
2019-01-15T00:23:23.229Z,2.89
2019-01-15T00:24:23.261Z,2.89
2019-01-15T00:25:23.205Z,2.84
2019-01-15T00:26:23.222Z,2.87
2019-01-15T00:27:23.184Z,2.99
2019-01-15T00:28:23.174Z,2.97
2019-01-15T00:29:23.203Z,2.81
2019-01-15T00:30:23.151Z,2.81
2019-01-15T00:31:23.140Z,2.82
2019-01-15T00:32:23.175Z,2.94
2019-01-15T00:33:23.121Z,2.94
2019-01-15T00:34:23.109Z,2.82
2019-01-15T00:35:23.097Z,2.96
2019-01-15T00:36:23.114Z,2.81
2019-01-15T00:37:23.074Z,2.94
2019-01-15T00:38:23.108Z,2.94
2019-01-15T00:39:23.054Z,2.96
2019-01-15T00:40:23.083Z,2.99
2019-01-15T00:41:23.074Z,2.99
2019-01-15T00:42:23.027Z,2.84
2019-01-15T00:43:23.010Z,2.86
2019-01-15T00:44:23.042Z,2.89
2019-01-15T00:45:22.988Z,2.84
2019-01-15T00:46:22.983Z,2.86
2019-01-15T00:47:23.023Z,2.86
2019-01-15T00:48:22.955Z,2.86
2019-01-15T00:49:22.945Z,2.84
2019-01-15T00:50:22.934Z,2.78
2019-01-15T00:51:22.922Z,2.82
2019-01-15T00:52:22.912Z,2.86
2019-01-15T00:53:22.949Z,2.91
2019-01-15T00:54:22.890Z,2.86
2019-01-15T00:55:22.881Z,2.81
2019-01-15T00:56:22.871Z,2.86
2019-01-15T00:57:22.857Z,2.86
2019-01-15T00:58:22.845Z,2.79
2019-01-15T00:59:22.879Z,2.87
2019-01-15T01:00:22.858Z,2.78
2019-01-15T01:01:22.855Z,2.73
2019-01-15T01:02:22.805Z,2.69
2019-01-15T01:03:22.835Z,2.68
2019-01-15T01:04:22.821Z,2.69
2019-01-15T01:05:22.771Z,2.69
2019-01-15T01:06:22.762Z,2.65
2019-01-15T01:07:22.787Z,2.58
2019-01-15T01:08:22.739Z,2.65
2019-01-15T01:09:22.727Z,2.63
2019-01-15T01:10:22.722Z,2.53
2019-01-15T01:11:22.750Z,2.60
2019-01-15T01:12:22.739Z,2.65
2019-01-15T01:13:22.684Z,2.63
2019-01-15T01:14:22.673Z,2.66
2019-01-15T01:15:22.662Z,2.63
2019-01-15T01:16:22.654Z,2.69
2019-01-15T01:17:22.640Z,2.65
2019-01-15T01:18:22.675Z,2.65
2019-01-15T01:19:22.620Z,2.60
2019-01-15T01:20:22.643Z,2.55
2019-01-15T01:21:22.636Z,2.71
2019-01-15T01:22:22.583Z,2.63
2019-01-15T01:23:22.574Z,2.71
2019-01-15T01:24:22.570Z,2.76
2019-01-15T01:25:22.553Z,2.79
2019-01-15T01:26:22.582Z,2.86
2019-01-15T01:27:22.529Z,2.97
2019-01-15T01:28:22.518Z,2.90
2019-01-15T01:29:22.511Z,2.96
2019-01-15T01:30:22.500Z,2.93
2019-01-15T01:31:22.485Z,3.08
2019-01-15T01:32:22.521Z,3.09
2019-01-15T01:33:22.466Z,3.14
2019-01-15T01:34:22.458Z,3.20
2019-01-15T01:35:22.442Z,3.22
2019-01-15T01:36:22.472Z,3.11
2019-01-15T01:37:22.421Z,3.15
2019-01-15T01:38:22.465Z,3.27
2019-01-15T01:39:22.398Z,3.25
2019-01-15T01:40:22.388Z,3.17
2019-01-15T01:41:22.378Z,3.25
2019-01-15T01:42:29.239Z,3.07
2019-01-15T01:43:23.402Z,3.25
2019-01-15T01:44:22.345Z,3.25
2019-01-15T01:45:22.335Z,3.25
2019-01-15T01:46:22.323Z,3.12
2019-01-15T01:47:22.311Z,3.05
2019-01-15T01:48:22.303Z,3.11
2019-01-15T01:49:22.334Z,3.25
2019-01-15T01:50:22.277Z,3.22
2019-01-15T01:51:22.269Z,3.33
2019-01-15T01:52:22.260Z,3.29
2019-01-15T01:53:22.248Z,3.27
2019-01-15T01:54:22.235Z,3.25
2019-01-15T01:55:22.270Z,3.23
2019-01-15T01:56:22.218Z,3.32
2019-01-15T01:57:22.203Z,3.17
2019-01-15T01:58:22.190Z,3.26
2019-01-15T01:59:22.181Z,3.26
2019-01-15T02:00:22.171Z,3.29
2019-01-15T02:01:22.203Z,3.30
2019-01-15T02:02:22.191Z,3.54
2019-01-15T02:03:22.137Z,3.48
2019-01-15T02:04:22.127Z,3.45
2019-01-15T02:05:22.116Z,3.56
2019-01-15T02:06:22.104Z,3.52
2019-01-15T02:07:22.138Z,3.59
2019-01-15T02:08:22.083Z,3.56
2019-01-15T02:09:22.114Z,3.56
2019-01-15T02:10:22.062Z,3.73
2019-01-15T02:11:22.052Z,3.59
2019-01-15T02:12:22.040Z,3.55
2019-01-15T02:13:22.028Z,3.60
2019-01-15T02:14:22.063Z,3.55
2019-01-15T02:15:22.045Z,3.74
2019-01-15T02:16:22.037Z,3.80
2019-01-15T02:17:21.988Z,3.82
2019-01-15T02:18:21.973Z,3.82
2019-01-15T02:19:21.967Z,3.90
2019-01-15T02:20:21.954Z,3.84
2019-01-15T02:21:21.941Z,3.87
2019-01-15T02:22:21.976Z,3.85
2019-01-15T02:23:21.939Z,3.80
2019-01-15T02:24:21.948Z,3.90
2019-01-15T02:25:21.898Z,3.81
2019-01-15T02:26:21.894Z,3.91
2019-01-15T02:27:21.880Z,3.94
2019-01-15T02:28:21.864Z,3.90
2019-01-15T02:29:21.855Z,3.85
2019-01-15T02:30:21.884Z,3.88
2019-01-15T02:31:21.859Z,3.92
2019-01-15T02:32:21.863Z,3.98
2019-01-15T02:33:21.823Z,3.94
2019-01-15T02:34:21.802Z,3.96
2019-01-15T02:35:21.793Z,3.99
2019-01-15T02:36:21.782Z,4.02
2019-01-15T02:37:21.797Z,3.98
2019-01-15T02:38:21.795Z,4.02
2019-01-15T02:39:21.746Z,3.99
2019-01-15T02:40:21.736Z,4.02
2019-01-15T02:41:21.728Z,3.96
2019-01-15T02:42:21.713Z,4.00
2019-01-15T02:43:21.745Z,4.02
2019-01-15T02:44:21.695Z,4.02
2019-01-15T02:45:21.685Z,4.00
2019-01-15T02:46:21.679Z,4.02
2019-01-15T02:47:21.700Z,4.06
2019-01-15T02:48:21.649Z,4.13
2019-01-15T02:49:21.639Z,4.08
2019-01-15T02:50:21.630Z,4.12
2019-01-15T02:51:21.615Z,4.10
2019-01-15T02:52:21.605Z,4.06
2019-01-15T02:53:21.636Z,3.99
2019-01-15T02:54:21.583Z,4.00
2019-01-15T02:55:21.575Z,4.00
2019-01-15T02:56:21.559Z,4.06
2019-01-15T02:57:21.551Z,4.06
2019-01-15T02:58:21.649Z,4.08
2019-01-15T02:59:21.536Z,4.06
2019-01-15T03:00:21.517Z,4.09
2019-01-15T03:01:21.509Z,4.10
2019-01-15T03:02:21.505Z,4.12
2019-01-15T03:03:21.531Z,4.10
2019-01-15T03:04:21.476Z,4.12
2019-01-15T03:05:21.464Z,4.13
2019-01-15T03:06:21.452Z,4.09
2019-01-15T03:07:21.445Z,4.18
2019-01-15T03:08:21.437Z,4.23
2019-01-15T03:09:21.463Z,4.20
2019-01-15T03:10:21.424Z,4.21
2019-01-15T03:11:21.401Z,4.26
2019-01-15T03:12:21.388Z,4.23
2019-01-15T03:13:21.424Z,4.23
2019-01-15T03:14:21.367Z,4.26
2019-01-15T03:15:21.359Z,4.26
2019-01-15T03:16:21.345Z,4.23
2019-01-15T03:17:21.333Z,4.21
2019-01-15T03:18:21.365Z,4.30
2019-01-15T03:19:21.310Z,4.24
2019-01-15T03:20:21.299Z,4.31
2019-01-15T03:21:21.289Z,4.23
2019-01-15T03:22:21.279Z,4.30
2019-01-15T03:23:21.272Z,4.27
2019-01-15T03:24:21.303Z,4.30
2019-01-15T03:25:21.243Z,4.20
2019-01-15T03:26:21.273Z,4.21
2019-01-15T03:27:21.221Z,4.30
2019-01-15T03:28:21.251Z,4.26
2019-01-15T03:29:21.200Z,4.23
2019-01-15T03:30:21.195Z,4.26
2019-01-15T03:31:21.180Z,4.26
2019-01-15T03:32:21.170Z,4.24
2019-01-15T03:33:21.173Z,4.27
2019-01-15T03:34:21.201Z,4.31
2019-01-15T03:35:21.148Z,4.28
2019-01-15T03:36:21.128Z,4.26
2019-01-15T03:37:21.118Z,4.28
2019-01-15T03:38:21.105Z,4.28
2019-01-15T03:39:21.094Z,4.23
2019-01-15T03:40:21.128Z,4.26
2019-01-15T03:41:21.071Z,4.24
2019-01-15T03:42:21.065Z,4.27
2019-01-15T03:43:21.054Z,4.24
2019-01-15T03:44:21.041Z,4.24
2019-01-15T03:45:21.028Z,4.21
2019-01-15T03:46:21.076Z,4.35
2019-01-15T03:47:21.005Z,4.34
2019-01-15T03:48:20.994Z,4.28
2019-01-15T03:49:20.983Z,4.41
2019-01-15T03:50:20.978Z,4.34
2019-01-15T03:51:21.002Z,4.35
2019-01-15T03:52:20.996Z,4.39
2019-01-15T03:53:20.941Z,4.35
2019-01-15T03:54:20.930Z,4.35
2019-01-15T03:55:20.917Z,4.41
2019-01-15T03:56:20.907Z,4.34
2019-01-15T03:57:20.897Z,4.35
2019-01-15T03:58:20.923Z,4.38
2019-01-15T03:59:20.875Z,4.36
2019-01-15T04:00:20.868Z,4.38
2019-01-15T04:01:20.901Z,4.34
2019-01-15T04:02:20.843Z,4.34
2019-01-15T04:03:20.840Z,4.30
2019-01-15T04:04:20.821Z,4.39
2019-01-15T04:05:20.843Z,4.36
2019-01-15T04:06:20.837Z,4.39
2019-01-15T04:07:20.788Z,4.31
2019-01-15T04:08:20.821Z,4.38
2019-01-15T04:09:20.765Z,4.31
2019-01-15T04:10:20.756Z,4.42
2019-01-15T04:11:20.745Z,4.43
2019-01-15T04:12:20.774Z,4.41
2019-01-15T04:13:21.936Z,4.38
2019-01-15T04:14:20.712Z,4.43
2019-01-15T04:15:20.705Z,4.45
2019-01-15T04:16:20.740Z,4.46
2019-01-15T04:17:20.681Z,4.42
2019-01-15T04:18:20.713Z,4.53
2019-01-15T04:19:20.659Z,4.53
2019-01-15T04:20:20.649Z,4.48
2019-01-15T04:21:20.635Z,4.57
2019-01-15T04:22:20.672Z,4.48
2019-01-15T04:23:20.617Z,4.46
2019-01-15T04:24:20.661Z,4.48
2019-01-15T04:25:20.593Z,4.46
2019-01-15T04:26:20.585Z,4.42
2019-01-15T04:27:20.577Z,4.35
2019-01-15T04:28:20.563Z,4.38
2019-01-15T04:29:20.552Z,4.48
2019-01-15T04:30:20.588Z,4.43
2019-01-15T04:31:20.533Z,4.48
2019-01-15T04:32:20.517Z,4.46
2019-01-15T04:33:20.508Z,4.45
2019-01-15T04:34:20.499Z,4.49
2019-01-15T04:35:20.491Z,4.54
2019-01-15T04:36:20.518Z,4.51
2019-01-15T04:37:20.511Z,4.59
2019-01-15T04:38:20.452Z,4.60
2019-01-15T04:39:20.441Z,4.57
2019-01-15T04:40:20.432Z,4.57
2019-01-15T04:41:20.428Z,4.46
2019-01-15T04:42:20.454Z,4.45
2019-01-15T04:43:20.398Z,4.57
2019-01-15T04:44:20.435Z,4.54
2019-01-15T04:45:20.376Z,4.54
2019-01-15T04:46:20.368Z,4.61
2019-01-15T04:47:20.355Z,4.59
2019-01-15T04:48:20.343Z,4.57
2019-01-15T04:49:20.334Z,4.51
2019-01-15T04:50:20.372Z,4.54
2019-01-15T04:51:20.311Z,4.54
2019-01-15T04:52:20.304Z,4.63
2019-01-15T04:53:20.290Z,4.56
2019-01-15T04:54:20.280Z,4.57
2019-01-15T04:55:20.330Z,4.49
2019-01-15T04:56:20.257Z,4.46
2019-01-15T04:57:20.248Z,4.48
2019-01-15T04:58:20.238Z,4.51
2019-01-15T04:59:20.226Z,4.53
2019-01-15T05:00:20.213Z,4.49
2019-01-15T05:01:20.245Z,4.53
2019-01-15T05:02:20.192Z,4.56
2019-01-15T05:03:20.188Z,4.57
2019-01-15T05:04:20.170Z,4.53
2019-01-15T05:05:20.163Z,4.57
2019-01-15T05:06:20.150Z,4.46
2019-01-15T05:07:20.184Z,4.43
2019-01-15T05:08:20.129Z,4.53
2019-01-15T05:09:20.118Z,4.43
2019-01-15T05:10:20.106Z,4.53
2019-01-15T05:11:20.103Z,4.49
2019-01-15T05:12:20.085Z,4.42
2019-01-15T05:13:27.185Z,4.53
2019-01-15T05:14:21.101Z,4.49
2019-01-15T05:15:20.057Z,4.49
2019-01-15T05:16:20.043Z,4.38
2019-01-15T05:17:20.038Z,4.46
2019-01-15T05:18:20.019Z,4.41
2019-01-15T05:19:20.058Z,4.38
2019-01-15T05:20:19.998Z,4.42
2019-01-15T05:21:19.989Z,4.35
2019-01-15T05:22:19.980Z,4.34
2019-01-15T05:23:20.009Z,4.31
2019-01-15T05:24:20.013Z,4.28
2019-01-15T05:25:19.984Z,4.42
2019-01-15T05:26:19.935Z,4.38
2019-01-15T05:27:19.922Z,4.35
2019-01-15T05:28:19.915Z,4.38
2019-01-15T05:29:19.903Z,4.49
2019-01-15T05:30:19.940Z,4.49
2019-01-15T05:31:19.879Z,4.46
2019-01-15T05:32:19.871Z,4.49
2019-01-15T05:33:19.906Z,4.46
2019-01-15T05:34:19.848Z,4.57
2019-01-15T05:35:19.840Z,4.54
2019-01-15T05:36:19.835Z,4.57
2019-01-15T05:37:19.824Z,4.60
2019-01-15T05:38:19.803Z,4.53
2019-01-15T05:39:19.839Z,4.51
2019-01-15T05:40:19.829Z,4.57
2019-01-15T05:41:19.777Z,4.63
2019-01-15T05:42:19.761Z,4.64
2019-01-15T05:43:19.750Z,4.66
2019-01-15T05:44:19.740Z,4.53
2019-01-15T05:45:19.780Z,4.64
2019-01-15T05:46:19.780Z,4.61
2019-01-15T05:47:19.706Z,4.61
2019-01-15T05:48:19.703Z,4.61
2019-01-15T05:49:19.686Z,4.57
2019-01-15T05:50:19.677Z,4.59
2019-01-15T05:51:19.666Z,4.57
2019-01-15T05:52:19.692Z,4.66
2019-01-15T05:53:19.679Z,4.63
2019-01-15T05:54:19.637Z,4.53
2019-01-15T05:55:19.621Z,4.60
2019-01-15T05:56:19.653Z,4.57
2019-01-15T05:57:19.599Z,4.59
2019-01-15T05:58:19.588Z,4.59
2019-01-15T05:59:19.578Z,4.56
2019-01-15T06:00:19.565Z,4.57
2019-01-15T06:01:19.555Z,4.61
2019-01-15T06:02:19.597Z,4.67
2019-01-15T06:03:19.541Z,4.61
2019-01-15T06:04:19.534Z,4.57
2019-01-15T06:05:19.512Z,4.61
2019-01-15T06:06:19.504Z,4.63
2019-01-15T06:07:19.492Z,4.66
2019-01-15T06:08:19.542Z,4.66
2019-01-15T06:09:19.490Z,4.60
2019-01-15T06:10:19.462Z,4.61
2019-01-15T06:11:19.452Z,4.60
2019-01-15T06:12:19.438Z,4.64
2019-01-15T06:13:19.428Z,4.63
2019-01-15T06:14:19.476Z,4.61
2019-01-15T06:15:19.404Z,4.61
2019-01-15T06:16:19.397Z,4.57
2019-01-15T06:17:19.434Z,4.57
2019-01-15T06:18:19.371Z,4.64
2019-01-15T06:19:19.365Z,4.63
2019-01-15T06:20:19.352Z,4.57
2019-01-15T06:21:19.387Z,4.57
2019-01-15T06:22:19.333Z,4.57
2019-01-15T06:23:19.338Z,4.60
2019-01-15T06:24:19.316Z,4.53
2019-01-15T06:25:19.307Z,4.56
2019-01-15T06:26:19.286Z,4.56
2019-01-15T06:27:19.320Z,4.59
2019-01-15T06:28:19.275Z,4.59
2019-01-15T06:29:19.309Z,4.64
2019-01-15T06:30:19.332Z,4.57
2019-01-15T06:31:19.237Z,4.69
2019-01-15T06:32:19.305Z,4.61
2019-01-15T06:33:19.213Z,4.60
2019-01-15T06:34:19.198Z,4.59
2019-01-15T06:35:19.200Z,4.57
2019-01-15T06:36:19.179Z,4.60
2019-01-15T06:37:19.172Z,4.60
2019-01-15T06:38:19.209Z,4.64
2019-01-15T06:39:19.188Z,4.74
2019-01-15T06:40:19.183Z,4.66
2019-01-15T06:41:19.155Z,4.71
2019-01-15T06:42:19.126Z,4.72
2019-01-15T06:43:19.110Z,4.66
2019-01-15T06:44:19.095Z,4.66
2019-01-15T06:45:19.100Z,4.71
2019-01-15T06:46:19.127Z,4.72
2019-01-15T06:47:19.112Z,4.71
2019-01-15T06:48:19.052Z,4.74
2019-01-15T06:49:19.041Z,4.78
2019-01-15T06:50:19.032Z,4.72
2019-01-15T06:51:19.072Z,4.72
2019-01-15T06:52:19.005Z,4.78
2019-01-15T06:53:19.000Z,4.66
2019-01-15T06:54:18.999Z,4.74
2019-01-15T06:55:18.977Z,4.72
2019-01-15T06:56:18.973Z,4.64
2019-01-15T06:57:19.010Z,4.64
2019-01-15T06:58:18.942Z,4.71
2019-01-15T06:59:18.944Z,4.77
2019-01-15T07:00:18.940Z,4.83
2019-01-15T07:01:19.028Z,4.85
2019-01-15T07:02:18.900Z,4.89
2019-01-15T07:03:19.040Z,4.82
2019-01-15T07:04:18.883Z,4.91
2019-01-15T07:05:19.099Z,4.82
2019-01-15T07:06:18.851Z,4.88
2019-01-15T07:07:18.898Z,4.86
2019-01-15T07:08:18.844Z,4.79
2019-01-15T07:09:18.821Z,4.82
2019-01-15T07:10:18.825Z,4.91
2019-01-15T07:11:18.798Z,4.89
2019-01-15T07:12:18.968Z,4.82
2019-01-15T07:13:18.823Z,4.83
2019-01-15T07:14:18.774Z,4.88
2019-01-15T07:15:18.833Z,4.88
2019-01-15T07:16:18.756Z,4.93
2019-01-15T07:17:18.734Z,4.86
2019-01-15T07:18:18.734Z,4.93
2019-01-15T07:19:18.723Z,4.91
2019-01-15T07:20:18.704Z,4.97
2019-01-15T07:21:18.753Z,5.04
2019-01-15T07:22:18.679Z,4.93
2019-01-15T07:23:18.675Z,4.88
2019-01-15T07:24:18.660Z,4.96
2019-01-15T07:25:18.672Z,5.03
2019-01-15T07:26:18.689Z,5.04
2019-01-15T07:27:18.632Z,5.00
2019-01-15T07:28:18.636Z,4.96
2019-01-15T07:29:18.613Z,4.98
2019-01-15T07:30:18.601Z,5.09
2019-01-15T07:31:18.630Z,5.06
2019-01-15T07:32:18.621Z,5.14
2019-01-15T07:33:18.569Z,5.16
2019-01-15T07:34:18.584Z,5.24
2019-01-15T07:35:18.540Z,5.18
2019-01-15T07:36:18.529Z,5.19
2019-01-15T07:37:18.535Z,5.22
2019-01-15T07:38:18.566Z,5.22
2019-01-15T07:39:18.507Z,5.22
2019-01-15T07:40:18.491Z,5.24
2019-01-15T07:41:18.535Z,5.27
2019-01-15T07:42:18.474Z,5.18
2019-01-15T07:43:18.525Z,5.19
2019-01-15T07:44:18.457Z,5.21
2019-01-15T07:45:18.439Z,5.21
2019-01-15T07:46:18.491Z,5.25
2019-01-15T07:47:18.553Z,5.22
2019-01-15T07:48:18.419Z,5.22
2019-01-15T07:49:18.423Z,5.27
2019-01-15T07:50:18.450Z,5.27
2019-01-15T07:51:18.433Z,5.32
2019-01-15T07:52:18.355Z,5.32
2019-01-15T07:53:18.423Z,5.32
2019-01-15T07:54:18.391Z,5.34
2019-01-15T07:55:18.327Z,5.29
2019-01-15T07:56:18.389Z,5.39
2019-01-15T07:57:18.312Z,5.40
2019-01-15T07:58:18.301Z,5.37
2019-01-15T07:59:18.405Z,5.33
2019-01-15T08:00:18.316Z,5.39
2019-01-15T08:01:18.271Z,5.43
2019-01-15T08:02:18.254Z,5.40
2019-01-15T08:03:18.468Z,5.54
2019-01-15T08:04:18.226Z,5.48
2019-01-15T08:05:18.239Z,5.47
2019-01-15T08:06:18.340Z,5.54
2019-01-15T08:07:18.193Z,5.50
2019-01-15T08:08:18.194Z,5.59
2019-01-15T08:09:18.202Z,5.51
2019-01-15T08:10:18.168Z,5.59
2019-01-15T08:11:18.177Z,5.55
2019-01-15T08:12:18.214Z,5.44
2019-01-15T08:13:18.128Z,5.59
2019-01-15T08:14:18.130Z,5.52
2019-01-15T08:15:18.150Z,5.61
2019-01-15T08:16:18.151Z,5.70
2019-01-15T08:17:18.095Z,5.61
2019-01-15T08:18:18.086Z,5.67
2019-01-15T08:19:18.070Z,5.65
2019-01-15T08:20:18.073Z,5.65
2019-01-15T08:21:18.114Z,5.70
2019-01-15T08:22:18.055Z,5.75
2019-01-15T08:23:18.038Z,5.70
2019-01-15T08:24:18.026Z,5.66
2019-01-15T08:25:18.001Z,5.66
2019-01-15T08:26:18.012Z,5.72
2019-01-15T08:27:18.037Z,5.67
2019-01-15T08:28:17.969Z,5.70
2019-01-15T08:29:18.024Z,5.70
2019-01-15T08:30:17.951Z,5.75
2019-01-15T08:31:17.946Z,5.77
2019-01-15T08:32:17.951Z,5.84
2019-01-15T08:33:17.992Z,5.77
2019-01-15T08:34:17.908Z,5.75
2019-01-15T08:35:17.900Z,5.75
2019-01-15T08:36:17.906Z,5.69
2019-01-15T08:37:17.886Z,5.75
2019-01-15T08:38:17.866Z,5.72
2019-01-15T08:39:17.899Z,5.75
2019-01-15T08:40:17.894Z,5.73
2019-01-15T08:41:17.832Z,5.80
2019-01-15T08:42:17.832Z,5.80
2019-01-15T08:43:17.839Z,5.93
2019-01-15T08:44:19.333Z,5.93
2019-01-15T08:45:17.941Z,5.90
2019-01-15T08:46:17.797Z,5.98
2019-01-15T08:47:17.773Z,5.93
2019-01-15T08:48:17.763Z,5.88
2019-01-15T08:49:17.757Z,5.88
2019-01-15T08:50:17.740Z,5.93
2019-01-15T08:51:17.780Z,6.02
2019-01-15T08:52:17.716Z,5.97
2019-01-15T08:53:17.707Z,6.02
2019-01-15T08:54:17.706Z,5.97
2019-01-15T08:55:17.690Z,5.97
2019-01-15T08:56:17.703Z,6.08
2019-01-15T08:57:17.735Z,6.05
2019-01-15T08:58:17.707Z,6.12
2019-01-15T08:59:17.712Z,6.15
2019-01-15T09:00:17.644Z,6.16
2019-01-15T09:01:17.615Z,6.11
2019-01-15T09:02:17.610Z,6.11
2019-01-15T09:03:17.612Z,6.13
2019-01-15T09:04:17.718Z,6.11
2019-01-15T09:05:17.619Z,6.15
2019-01-15T09:06:17.563Z,6.12
2019-01-15T09:07:17.553Z,6.12
2019-01-15T09:08:17.556Z,6.12
2019-01-15T09:09:17.543Z,6.19
2019-01-15T09:10:17.621Z,6.15
2019-01-15T09:11:17.611Z,6.18
2019-01-15T09:12:17.524Z,6.18
2019-01-15T09:13:17.494Z,6.19
2019-01-15T09:14:17.504Z,6.16
2019-01-15T09:15:17.497Z,6.30
2019-01-15T09:16:17.466Z,6.31
2019-01-15T09:17:17.536Z,6.35
2019-01-15T09:18:17.451Z,6.27
2019-01-15T09:19:17.483Z,6.28
2019-01-15T09:20:17.430Z,6.31
2019-01-15T09:21:17.412Z,6.25
2019-01-15T09:22:17.410Z,6.34
2019-01-15T09:23:17.420Z,6.30
2019-01-15T09:24:17.366Z,6.30
2019-01-15T09:25:17.371Z,6.34
2019-01-15T09:26:17.344Z,6.34
2019-01-15T09:27:17.402Z,6.37
2019-01-15T09:28:17.342Z,6.37
2019-01-15T09:29:17.316Z,6.46
2019-01-15T09:30:17.372Z,6.27
2019-01-15T09:31:17.386Z,6.43
2019-01-15T09:32:17.288Z,6.50
2019-01-15T09:33:17.415Z,6.40
2019-01-15T09:34:17.287Z,6.53
2019-01-15T09:35:17.249Z,6.46
2019-01-15T09:36:17.245Z,6.64
2019-01-15T09:37:17.235Z,6.67
2019-01-15T09:38:17.257Z,6.63
2019-01-15T09:39:17.211Z,6.68
2019-01-15T09:40:17.199Z,6.74
2019-01-15T09:41:17.300Z,6.82
2019-01-15T09:42:17.177Z,6.81
2019-01-15T09:43:17.402Z,6.74
2019-01-15T09:44:17.162Z,6.88
2019-01-15T09:45:17.176Z,6.79
2019-01-15T09:46:19.020Z,6.81
2019-01-15T09:47:17.282Z,6.85
2019-01-15T09:48:17.165Z,6.93
2019-01-15T09:49:17.107Z,7.01
2019-01-15T09:50:17.170Z,7.04
2019-01-15T09:51:17.096Z,7.00
2019-01-15T09:52:20.532Z,7.06
2019-01-15T09:53:17.053Z,7.01
2019-01-15T09:54:17.110Z,7.06
2019-01-15T09:55:17.056Z,7.13
2019-01-15T09:56:17.070Z,7.06
2019-01-15T09:57:17.085Z,7.15
2019-01-15T09:58:17.069Z,7.11
2019-01-15T09:59:17.005Z,7.15
2019-01-15T10:00:16.982Z,7.13
2019-01-15T10:01:16.978Z,7.22
2019-01-15T10:02:16.955Z,7.28
2019-01-15T10:03:16.945Z,7.31
2019-01-15T10:04:16.982Z,7.31
2019-01-15T10:05:16.926Z,7.33
2019-01-15T10:06:16.919Z,7.28
2019-01-15T10:07:16.899Z,7.31
2019-01-15T10:08:16.920Z,7.31
2019-01-15T10:09:16.908Z,7.42
2019-01-15T10:10:16.917Z,7.31
2019-01-15T10:11:16.861Z,7.40
2019-01-15T10:12:16.869Z,7.28
2019-01-15T10:13:16.883Z,7.43
2019-01-15T10:14:16.885Z,7.46
2019-01-15T10:15:17.528Z,7.46
2019-01-15T10:16:16.804Z,7.46
2019-01-15T10:17:16.839Z,7.44
2019-01-15T10:18:16.789Z,7.49
2019-01-15T10:19:16.821Z,7.57
2019-01-15T10:20:16.770Z,7.47
2019-01-15T10:21:16.756Z,7.61
2019-01-15T10:22:16.873Z,7.62
2019-01-15T10:23:16.763Z,7.60
2019-01-15T10:24:16.716Z,7.68
2019-01-15T10:25:16.770Z,7.76
2019-01-15T10:26:17.526Z,7.74
2019-01-15T10:27:16.782Z,7.74
2019-01-15T10:28:16.673Z,7.68
2019-01-15T10:29:16.668Z,7.74
2019-01-15T10:30:16.735Z,7.80
2019-01-15T10:31:17.234Z,7.77
2019-01-15T10:32:16.721Z,7.81
2019-01-15T10:33:16.656Z,7.78
2019-01-15T10:34:16.704Z,7.78
2019-01-15T10:35:16.618Z,7.74
2019-01-15T10:36:16.642Z,7.81
2019-01-15T10:37:16.578Z,7.76
2019-01-15T10:38:16.557Z,7.88
2019-01-15T10:39:16.549Z,7.88
2019-01-15T10:40:16.595Z,7.88
2019-01-15T10:41:16.572Z,7.91
2019-01-15T10:42:16.525Z,7.98
2019-01-15T10:43:16.591Z,8.05
2019-01-15T10:44:16.501Z,8.01
2019-01-15T10:45:16.482Z,8.09
2019-01-15T10:46:16.475Z,8.13
2019-01-15T10:47:16.457Z,8.16
2019-01-15T10:48:16.446Z,8.13
2019-01-15T10:49:16.488Z,8.10
2019-01-15T10:50:16.483Z,8.21
2019-01-15T10:51:16.431Z,8.28
2019-01-15T10:52:16.451Z,8.32
2019-01-15T10:53:16.409Z,8.20
2019-01-15T10:54:16.429Z,8.28
2019-01-15T10:55:16.438Z,8.37
2019-01-15T10:56:16.363Z,8.34
2019-01-15T10:57:16.357Z,8.34
2019-01-15T10:58:17.698Z,8.34
2019-01-15T10:59:16.327Z,8.35
2019-01-15T11:00:16.389Z,8.35
2019-01-15T11:01:16.402Z,8.31
2019-01-15T11:02:16.402Z,8.32
2019-01-15T11:03:16.284Z,8.38
2019-01-15T11:04:16.309Z,8.31
2019-01-15T11:05:16.258Z,8.41
2019-01-15T11:06:16.302Z,8.42
2019-01-15T11:07:16.240Z,8.44
2019-01-15T11:08:16.339Z,8.60
2019-01-15T11:09:16.212Z,8.60
2019-01-15T11:10:16.203Z,8.63
2019-01-15T11:11:17.018Z,8.70
2019-01-15T11:12:16.218Z,8.75
2019-01-15T11:13:16.175Z,8.75
2019-01-15T11:14:16.237Z,8.85
2019-01-15T11:15:16.153Z,8.80
2019-01-15T11:16:16.145Z,8.93
2019-01-15T11:17:16.132Z,8.95
2019-01-15T11:18:16.128Z,8.96
2019-01-15T11:19:16.200Z,8.89
2019-01-15T11:20:16.092Z,8.72
2019-01-15T11:21:16.080Z,8.75
2019-01-15T11:22:16.127Z,8.77
2019-01-15T11:23:16.063Z,8.77
2019-01-15T11:24:16.054Z,8.88
2019-01-15T11:25:16.109Z,8.93
2019-01-15T11:26:16.022Z,8.93
2019-01-15T11:27:16.019Z,8.88
2019-01-15T11:28:16.210Z,8.86
2019-01-15T11:29:16.010Z,8.90
2019-01-15T11:30:15.992Z,8.83
2019-01-15T11:31:15.971Z,8.88
2019-01-15T11:32:15.961Z,8.88
2019-01-15T11:33:15.947Z,8.80
2019-01-15T11:34:15.997Z,8.81
2019-01-15T11:35:15.931Z,8.86
2019-01-15T11:36:15.931Z,8.65
2019-01-15T11:37:15.907Z,8.70
2019-01-15T11:38:15.908Z,8.60
2019-01-15T11:39:15.910Z,8.62
2019-01-15T11:40:15.915Z,8.70
2019-01-15T11:41:15.863Z,8.81
2019-01-15T11:42:15.856Z,8.85
2019-01-15T11:43:16.529Z,8.90
2019-01-15T11:44:15.843Z,8.83
2019-01-15T11:45:15.927Z,8.85
2019-01-15T11:46:15.809Z,8.90
2019-01-15T11:47:15.786Z,8.93
2019-01-15T11:48:15.842Z,8.93
2019-01-15T11:49:15.812Z,8.93
2019-01-15T11:50:15.757Z,8.90
2019-01-15T11:51:15.742Z,8.80
2019-01-15T11:52:15.736Z,8.85
2019-01-15T11:53:15.727Z,8.86
2019-01-15T11:54:15.763Z,8.90
2019-01-15T11:55:15.723Z,8.85
2019-01-15T11:56:15.689Z,8.71
2019-01-15T11:57:15.694Z,8.60
2019-01-15T11:58:15.668Z,8.57
2019-01-15T11:59:15.709Z,8.60
2019-01-15T12:00:15.651Z,8.56
2019-01-15T12:01:15.697Z,8.50
2019-01-15T12:02:22.012Z,8.60
2019-01-15T12:03:16.622Z,8.65
2019-01-15T12:04:15.740Z,8.72
2019-01-15T12:05:16.085Z,8.62
2019-01-15T12:06:16.065Z,8.63
2019-01-15T12:07:15.572Z,8.62
2019-01-15T12:08:15.567Z,8.50
2019-01-15T12:09:15.543Z,8.55
2019-01-15T12:10:15.542Z,8.49
2019-01-15T12:11:17.566Z,8.42
2019-01-15T12:12:15.568Z,8.44
2019-01-15T12:13:15.495Z,8.44
2019-01-15T12:14:15.535Z,8.44
2019-01-15T12:15:15.471Z,8.47
2019-01-15T12:16:15.461Z,8.42
2019-01-15T12:17:15.456Z,8.41
2019-01-15T12:18:15.443Z,8.52
2019-01-15T12:19:15.472Z,8.46
2019-01-15T12:20:15.421Z,8.49
2019-01-15T12:21:15.411Z,8.56
2019-01-15T12:22:15.393Z,8.60
2019-01-15T12:23:15.463Z,8.60
2019-01-15T12:24:15.375Z,8.71
2019-01-15T12:25:15.364Z,8.63
2019-01-15T12:26:15.410Z,8.57
2019-01-15T12:27:15.343Z,8.42
2019-01-15T12:28:15.326Z,8.56
2019-01-15T12:29:16.011Z,8.39
2019-01-15T12:30:15.307Z,8.47
2019-01-15T12:31:15.509Z,8.60
2019-01-15T12:32:15.284Z,8.63
2019-01-15T12:33:15.270Z,8.56
2019-01-15T12:34:15.363Z,8.41
2019-01-15T12:35:15.298Z,8.42
2019-01-15T12:36:15.294Z,8.56
2019-01-15T12:37:15.246Z,8.41
2019-01-15T12:38:15.230Z,8.46
2019-01-15T12:39:15.208Z,8.53
2019-01-15T12:40:15.222Z,8.41
2019-01-15T12:41:15.180Z,8.60
2019-01-15T12:42:15.221Z,8.44
2019-01-15T12:43:15.166Z,8.44
2019-01-15T12:44:15.152Z,8.44
2019-01-15T12:45:18.358Z,8.39
2019-01-15T12:46:15.136Z,8.47
2019-01-15T12:47:15.128Z,8.46
2019-01-15T12:48:15.145Z,8.38
2019-01-15T12:49:15.095Z,8.49
2019-01-15T12:50:15.081Z,8.50
2019-01-15T12:51:15.113Z,8.34
2019-01-15T12:52:15.064Z,8.38
2019-01-15T12:53:15.044Z,8.39
2019-01-15T12:54:15.101Z,8.38
2019-01-15T12:55:15.026Z,8.37
2019-01-15T12:56:15.060Z,8.35
2019-01-15T12:57:19.102Z,8.42
2019-01-15T12:58:14.993Z,8.39
2019-01-15T12:59:14.984Z,8.52
2019-01-15T13:00:15.506Z,8.41
2019-01-15T13:01:14.964Z,8.41
2019-01-15T13:02:14.946Z,8.41
2019-01-15T13:03:15.002Z,8.52
2019-01-15T13:04:15.037Z,8.47
2019-01-15T13:05:16.011Z,8.44
2019-01-15T13:06:14.899Z,8.44
2019-01-15T13:07:14.890Z,8.44
2019-01-15T13:08:14.885Z,8.46
2019-01-15T13:09:14.919Z,8.47
2019-01-15T13:10:14.868Z,8.55
2019-01-15T13:11:14.860Z,8.46
2019-01-15T13:12:14.841Z,8.39
2019-01-15T13:13:14.839Z,8.44
2019-01-15T13:14:14.859Z,8.44
2019-01-15T13:15:14.842Z,8.41
2019-01-15T13:16:14.794Z,8.44
2019-01-15T13:17:14.778Z,8.46
2019-01-15T13:18:14.774Z,8.53